createdAt,value
2023-03-20T00:00:36.012Z,95828.00
2023-03-20T00:03:21.974Z,95819.41
2023-03-20T00:06:37.122Z,95817.28
2023-03-20T00:09:23.309Z,95813.53
2023-03-20T00:12:15.880Z,95815.94
2023-03-20T00:15:04.444Z,95808.69
2023-03-20T00:17:50.356Z,95806.03
2023-03-20T00:20:36.152Z,95815.16
2023-03-20T00:23:22.826Z,95821.31
2023-03-20T00:26:15.787Z,95827.50
2023-03-20T00:29:04.159Z,95823.47
2023-03-20T00:31:50.005Z,95828.06
2023-03-20T00:34:36.489Z,95831.00
2023-03-20T00:37:22.358Z,95824.31
2023-03-20T00:40:09.586Z,95821.66
2023-03-20T00:42:59.789Z,95831.84
2023-03-20T00:45:45.823Z,95828.34
2023-03-20T00:48:32.534Z,95827.56
2023-03-20T00:51:19.359Z,95824.88
2023-03-20T00:54:16.842Z,95830.81
2023-03-20T00:57:35.585Z,95824.38
2023-03-20T01:00:30.744Z,95815.25
2023-03-20T01:03:25.765Z,95818.50
2023-03-20T01:06:12.971Z,95819.53
2023-03-20T01:08:58.728Z,95812.06
2023-03-20T01:11:45.127Z,95817.41
2023-03-20T01:14:31.260Z,95810.97
2023-03-20T01:17:19.957Z,95812.84
2023-03-20T01:20:14.329Z,95815.81
2023-03-20T01:23:00.417Z,95818.47
2023-03-20T01:25:46.257Z,95812.84
2023-03-20T01:28:32.472Z,95816.88
2023-03-20T01:31:19.066Z,95811.53
2023-03-20T01:34:06.362Z,95818.47
2023-03-20T01:36:54.384Z,95817.66
2023-03-20T01:39:40.390Z,95821.69
2023-03-20T01:42:26.196Z,95816.34
2023-03-20T01:45:21.510Z,95814.69
2023-03-20T01:48:17.700Z,95812.03
2023-03-20T01:51:03.506Z,95816.31
2023-03-20T01:53:53.531Z,95815.78
2023-03-20T01:56:43.597Z,95813.91
2023-03-20T01:59:30.268Z,95797.53
2023-03-20T02:02:20.541Z,95812.56
2023-03-20T02:05:09.624Z,95806.91
2023-03-20T02:08:26.159Z,95800.72
2023-03-20T02:11:13.163Z,95796.94
2023-03-20T02:14:00.295Z,95803.09
2023-03-20T02:16:51.259Z,95789.97
2023-03-20T02:20:17.930Z,95799.34
2023-03-20T02:23:09.895Z,95803.34
2023-03-20T02:26:37.057Z,95808.19
2023-03-20T02:29:42.497Z,95806.03
2023-03-20T02:32:41.295Z,95795.34
2023-03-20T02:35:52.652Z,95798.56
2023-03-20T02:39:00.349Z,95787.59
2023-03-20T02:41:46.447Z,95791.06
2023-03-20T02:44:51.468Z,95788.38
2023-03-20T02:47:44.693Z,95787.03
2023-03-20T02:50:38.805Z,95782.47
2023-03-20T02:53:41.676Z,95788.38
2023-03-20T02:56:46.252Z,95778.19
2023-03-20T02:59:37.774Z,95783.53
2023-03-20T03:02:37.840Z,95781.91
2023-03-20T03:05:37.118Z,95781.91
2023-03-20T03:08:26.307Z,95782.47
2023-03-20T03:11:12.892Z,95781.88
2023-03-20T03:13:59.207Z,95782.66
2023-03-20T03:16:46.695Z,95789.38
2023-03-20T03:19:34.125Z,95779.69
2023-03-20T03:22:21.260Z,95790.41
2023-03-20T03:25:07.359Z,95786.63
2023-03-20T03:28:18.936Z,95792.78
2023-03-20T03:31:13.740Z,95783.44
2023-03-20T03:34:00.350Z,95790.41
2023-03-20T03:37:00.980Z,95792.03
2023-03-20T03:39:54.130Z,95788.00
2023-03-20T03:43:04.590Z,95789.31
2023-03-20T03:45:55.113Z,95774.31
2023-03-20T03:48:45.509Z,95775.13
2023-03-20T03:51:34.583Z,95780.47
2023-03-20T03:54:42.202Z,95778.56
2023-03-20T03:57:58.178Z,95768.09
2023-03-20T04:00:46.341Z,95776.41
2023-03-20T04:03:35.907Z,95783.38
2023-03-20T04:06:22.105Z,95774.78
2023-03-20T04:09:09.675Z,95777.75
2023-03-20T04:11:55.398Z,95767.31
2023-03-20T04:14:41.245Z,95785.03
2023-03-20T04:17:27.276Z,95782.84
2023-03-20T04:20:13.713Z,95789.81
2023-03-20T04:22:59.674Z,95786.31
2023-03-20T04:25:45.631Z,95782.56
2023-03-20T04:28:34.376Z,95777.47
2023-03-20T04:31:43.671Z,95772.13
2023-03-20T04:34:37.940Z,95768.59
2023-03-20T04:37:33.160Z,95772.63
2023-03-20T04:40:27.256Z,95764.06
2023-03-20T04:43:14.629Z,95773.69
2023-03-20T04:46:00.860Z,95776.88
2023-03-20T04:48:46.934Z,95785.97
2023-03-20T04:51:33.753Z,95789.75
2023-03-20T04:54:19.876Z,95791.06
2023-03-20T04:57:06.268Z,95786.50
2023-03-20T04:59:53.112Z,95789.19
2023-03-20T05:02:38.989Z,95795.09
2023-03-20T05:05:26.284Z,95794.53
2023-03-20T05:08:13.412Z,95794.00
2023-03-20T05:10:59.813Z,95804.97
2023-03-20T05:14:24.304Z,95806.31
2023-03-20T05:17:41.274Z,95815.41
2023-03-20T05:20:50.900Z,95817.00
2023-03-20T05:24:09.194Z,95805.78
2023-03-20T05:27:15.035Z,95821.84
2023-03-20T05:30:19.834Z,95810.03
2023-03-20T05:33:05.701Z,95806.56
2023-03-20T05:36:12.208Z,95811.41
2023-03-20T05:39:27.641Z,95811.16
2023-03-20T05:42:27.741Z,95813.56
2023-03-20T05:45:37.164Z,95813.56
2023-03-20T05:48:47.611Z,95820.31
2023-03-20T05:52:06.545Z,95814.97
2023-03-20T05:55:20.798Z,95820.06
2023-03-20T05:58:26.359Z,95827.34
2023-03-20T06:01:28.076Z,95821.97
2023-03-20T06:04:26.062Z,95822.53
2023-03-20T06:07:30.361Z,95819.09
2023-03-20T06:10:21.711Z,95816.16
2023-03-20T06:13:09.444Z,95815.13
2023-03-20T06:15:56.382Z,95813.25
2023-03-20T06:18:42.760Z,95817.00
2023-03-20T06:21:28.664Z,95822.13
2023-03-20T06:24:14.619Z,95819.47
2023-03-20T06:27:00.794Z,95815.97
2023-03-20T06:29:47.650Z,95828.03
2023-03-20T06:32:37.384Z,95823.25
2023-03-20T06:35:30.740Z,95817.38
2023-03-20T06:38:16.821Z,95818.44
2023-03-20T06:41:03.051Z,95817.41
2023-03-20T06:43:49.663Z,95824.91
2023-03-20T06:46:38.686Z,95816.88
2023-03-20T06:49:25.444Z,95815.81
2023-03-20T06:52:19.921Z,95830.28
2023-03-20T06:55:16.328Z,95821.44
2023-03-20T06:58:03.897Z,95813.63
2023-03-20T07:00:52.283Z,95816.84
2023-03-20T07:03:40.178Z,95818.97
2023-03-20T07:06:28.122Z,95814.41
2023-03-20T07:09:13.996Z,95825.38
2023-03-20T07:12:00.146Z,95822.97
2023-03-20T07:14:46.635Z,95827.22
2023-03-20T07:17:37.501Z,95818.91
2023-03-20T07:20:23.287Z,95817.25
2023-03-20T07:23:09.391Z,95811.88
2023-03-20T07:25:55.575Z,95811.84
2023-03-20T07:28:41.500Z,95806.47
2023-03-20T07:31:37.195Z,95810.72
2023-03-20T07:34:33.163Z,95803.75
2023-03-20T07:37:20.015Z,95809.38
2023-03-20T07:40:16.977Z,95806.38
2023-03-20T07:43:33.553Z,95816.53
2023-03-20T07:46:49.265Z,95807.88
2023-03-20T07:49:35.582Z,95804.88
2023-03-20T07:52:21.664Z,95798.63
2023-03-20T07:55:07.811Z,95794.59
2023-03-20T07:57:53.921Z,95806.03
2023-03-20T08:00:40.692Z,95804.06
2023-03-20T08:03:26.814Z,95801.03
2023-03-20T08:06:12.414Z,95799.81
2023-03-20T08:08:58.735Z,95797.84
2023-03-20T08:11:44.621Z,95797.41
2023-03-20T08:14:30.684Z,95796.72
2023-03-20T08:17:19.376Z,95796.06
2023-03-20T08:20:07.303Z,95799.69
2023-03-20T08:22:53.299Z,95796.75
2023-03-20T08:25:39.318Z,95804.84
2023-03-20T08:28:44.040Z,95794.19
2023-03-20T08:31:31.684Z,95796.03
2023-03-20T08:34:17.901Z,95792.00
2023-03-20T08:38:10.214Z,95804.00
2023-03-20T08:40:56.230Z,95785.28
2023-03-20T08:43:46.314Z,95789.44
2023-03-20T08:46:32.746Z,95776.44
2023-03-20T08:49:18.554Z,95781.09
2023-03-20T08:52:04.482Z,95783.69
2023-03-20T08:54:50.294Z,95786.88
2023-03-20T08:57:35.962Z,95789.47
2023-03-20T09:00:22.577Z,95791.22
2023-03-20T09:03:14.851Z,95780.53
2023-03-20T09:06:01.128Z,95777.50
2023-03-20T09:08:47.131Z,95778.22
2023-03-20T09:11:36.122Z,95778.84
2023-03-20T09:14:22.699Z,95769.84
2023-03-20T09:17:08.434Z,95773.75
2023-03-20T09:19:54.252Z,95769.19
2023-03-20T09:22:41.449Z,95767.78
2023-03-20T09:25:27.575Z,95761.59
2023-03-20T09:28:14.053Z,95762.59
2023-03-20T09:31:00.210Z,95765.34
2023-03-20T09:33:46.524Z,95764.72
2023-03-20T09:36:33.125Z,95743.69
2023-03-20T09:39:21.415Z,95754.56
2023-03-20T09:42:31.449Z,95735.91
2023-03-20T09:45:20.239Z,95738.16
2023-03-20T09:48:24.532Z,95745.66
2023-03-20T09:51:27.143Z,95742.19
2023-03-20T09:54:25.226Z,95730.97
2023-03-20T09:57:27.094Z,95722.00
2023-03-20T10:00:19.525Z,95711.00
2023-03-20T10:03:10.301Z,95713.69
2023-03-20T10:06:09.703Z,95699.09
2023-03-20T10:08:55.560Z,95699.06
2023-03-20T10:12:08.428Z,95695.03
2023-03-20T10:15:21.897Z,95696.94
2023-03-20T10:18:26.000Z,95688.81
2023-03-20T10:21:26.828Z,95676.72
2023-03-20T10:24:29.993Z,95671.50
2023-03-20T10:27:42.308Z,95671.22
2023-03-20T10:30:56.333Z,95669.91
2023-03-20T10:34:05.147Z,95666.97
2023-03-20T10:37:00.487Z,95661.47
2023-03-20T10:39:57.874Z,95663.66
2023-03-20T10:42:45.886Z,95655.28
2023-03-20T10:45:53.801Z,95643.53
2023-03-20T10:49:04.184Z,95651.44
2023-03-20T10:51:52.944Z,95642.50
2023-03-20T10:54:45.741Z,95626.84
2023-03-20T10:57:36.483Z,95641.06
2023-03-20T11:00:25.043Z,95634.84
2023-03-20T11:03:24.888Z,95624.16
2023-03-20T11:06:24.267Z,95624.19
2023-03-20T11:09:20.435Z,95625.75
2023-03-20T11:12:18.389Z,95617.16
2023-03-20T11:15:34.839Z,95618.56
2023-03-20T11:18:20.832Z,95607.94
2023-03-20T11:21:09.028Z,95606.34
2023-03-20T11:23:55.202Z,95597.38
2023-03-20T11:26:42.913Z,95595.38
2023-03-20T11:29:35.284Z,95593.31
2023-03-20T11:32:35.985Z,95580.72
2023-03-20T11:35:27.876Z,95584.28
2023-03-20T11:38:20.322Z,95579.59
2023-03-20T11:41:22.255Z,95566.72
2023-03-20T11:44:28.146Z,95566.25
2023-03-20T11:47:19.519Z,95551.84
2023-03-20T11:50:07.343Z,95554.31
2023-03-20T11:52:54.159Z,95551.97
2023-03-20T11:55:39.810Z,95549.13
2023-03-20T11:58:25.643Z,95534.50
2023-03-20T12:01:12.650Z,95525.59
2023-03-20T12:03:58.089Z,95524.44
2023-03-20T12:06:46.984Z,95522.31
2023-03-20T12:09:49.772Z,95518.53
2023-03-20T12:12:41.030Z,95516.22
2023-03-20T12:15:39.002Z,95519.38
2023-03-20T12:18:36.950Z,95511.09
2023-03-20T12:21:37.683Z,95517.00
2023-03-20T12:24:42.408Z,95502.06
2023-03-20T12:27:36.093Z,95499.34
2023-03-20T12:30:50.074Z,95490.31
2023-03-20T12:33:47.806Z,95481.72
2023-03-20T12:36:41.413Z,95488.78
2023-03-20T12:39:34.427Z,95486.75
2023-03-20T12:42:48.197Z,95487.03
2023-03-20T12:46:25.266Z,95471.38
2023-03-20T12:49:17.195Z,95470.34
2023-03-20T12:52:32.845Z,95459.16
2023-03-20T12:55:18.695Z,95456.25
2023-03-20T12:58:15.564Z,95456.59
2023-03-20T13:01:09.380Z,95437.19
2023-03-20T13:04:10.000Z,95430.00
2023-03-20T13:07:03.832Z,95433.56
2023-03-20T13:10:02.139Z,95439.81
2023-03-20T13:13:06.372Z,95435.00
2023-03-20T13:15:56.652Z,95430.56
2023-03-20T13:19:12.767Z,95428.91
2023-03-20T13:22:21.914Z,95430.56
2023-03-20T13:25:23.065Z,95429.94
2023-03-20T13:28:44.271Z,95422.19
2023-03-20T13:31:48.604Z,95420.13
2023-03-20T13:35:23.538Z,95413.22
2023-03-20T13:38:25.359Z,95408.31
2023-03-20T13:41:11.267Z,95415.97
2023-03-20T13:44:01.326Z,95425.56
2023-03-20T13:46:51.176Z,95417.34
2023-03-20T13:50:09.788Z,95409.50
2023-03-20T13:53:20.002Z,95400.84
2023-03-20T13:56:29.608Z,95397.31
2023-03-20T13:59:37.511Z,95405.94
2023-03-20T14:02:45.035Z,95394.91
2023-03-20T14:05:36.468Z,95387.84
2023-03-20T14:08:30.838Z,95400.44
2023-03-20T14:11:24.316Z,95393.34
2023-03-20T14:14:23.959Z,95386.22
2023-03-20T14:17:19.169Z,95382.22
2023-03-20T14:20:20.861Z,95373.53
2023-03-20T14:23:08.084Z,95370.41
2023-03-20T14:25:54.838Z,95377.50
2023-03-20T14:29:00.102Z,95378.34
2023-03-20T14:31:49.641Z,95375.97
2023-03-20T14:34:49.289Z,95370.47
2023-03-20T14:37:58.496Z,95368.94
2023-03-20T14:41:11.932Z,95362.63
2023-03-20T14:44:16.603Z,95359.44
2023-03-20T14:47:11.131Z,95363.41
2023-03-20T14:50:20.711Z,95353.16
2023-03-20T14:53:21.196Z,95350.72
2023-03-20T14:56:11.122Z,95351.41
2023-03-20T14:59:00.264Z,95350.13
2023-03-20T15:01:55.844Z,95352.28
2023-03-20T15:04:42.795Z,95358.00
2023-03-20T15:07:36.398Z,95355.81
2023-03-20T15:10:22.155Z,95352.13
2023-03-20T15:13:08.528Z,95356.97
2023-03-20T15:15:59.969Z,95354.72
2023-03-20T15:18:52.872Z,95357.63
2023-03-20T15:21:41.480Z,95352.63
2023-03-20T15:24:29.687Z,95362.59
2023-03-20T15:27:16.179Z,95354.41
2023-03-20T15:30:02.633Z,95364.31
2023-03-20T15:32:49.973Z,95363.63
2023-03-20T15:35:36.714Z,95369.19
2023-03-20T15:38:23.262Z,95360.28
2023-03-20T15:41:09.064Z,95355.22
2023-03-20T15:44:23.216Z,95356.13
2023-03-20T15:47:20.593Z,95357.78
2023-03-20T15:50:12.848Z,95356.72
2023-03-20T15:52:59.069Z,95362.41
2023-03-20T15:55:50.839Z,95361.06
2023-03-20T15:58:36.939Z,95360.03
2023-03-20T16:01:25.222Z,95370.03
2023-03-20T16:04:15.301Z,95367.44
2023-03-20T16:07:01.706Z,95373.91
2023-03-20T16:09:49.696Z,95378.03
2023-03-20T16:12:35.689Z,95377.09
2023-03-20T16:15:25.595Z,95379.25
2023-03-20T16:18:15.072Z,95368.84
2023-03-20T16:21:05.646Z,95373.88
2023-03-20T16:23:54.168Z,95380.75
2023-03-20T16:26:44.592Z,95377.50
2023-03-20T16:29:30.971Z,95378.56
2023-03-20T16:32:31.239Z,95375.63
2023-03-20T16:35:20.447Z,95382.16
2023-03-20T16:38:29.539Z,95376.41
2023-03-20T16:41:15.715Z,95386.03
2023-03-20T16:44:12.030Z,95383.03
2023-03-20T16:47:18.344Z,95387.25
2023-03-20T16:50:37.778Z,95379.59
2023-03-20T16:53:24.939Z,95381.00
2023-03-20T16:56:16.553Z,95381.25
2023-03-20T16:59:10.351Z,95383.78
2023-03-20T17:01:59.920Z,95375.06
2023-03-20T17:04:48.046Z,95381.56
2023-03-20T17:07:34.370Z,95380.22
2023-03-20T17:10:21.829Z,95373.06
2023-03-20T17:13:08.765Z,95370.47
2023-03-20T17:15:55.008Z,95379.72
2023-03-20T17:18:40.961Z,95375.56
2023-03-20T17:21:27.457Z,95387.47
2023-03-20T17:24:14.993Z,95383.31
2023-03-20T17:27:01.135Z,95391.03
2023-03-20T17:29:49.296Z,95397.19
2023-03-20T17:32:35.462Z,95399.03
2023-03-20T17:35:21.480Z,95402.78
2023-03-20T17:38:12.352Z,95410.03
2023-03-20T17:40:58.184Z,95412.22
2023-03-20T17:43:45.222Z,95411.75
2023-03-20T17:46:33.330Z,95410.16
2023-03-20T17:49:26.973Z,95409.28
2023-03-20T17:52:17.899Z,95413.47
2023-03-20T17:55:03.844Z,95407.47
2023-03-20T17:57:49.843Z,95411.31
2023-03-20T18:00:36.454Z,95406.56
2023-03-20T18:03:22.511Z,95401.81
2023-03-20T18:06:17.736Z,95411.34
2023-03-20T18:09:04.526Z,95409.97
2023-03-20T18:11:50.684Z,95412.94
2023-03-20T18:14:36.648Z,95414.25
2023-03-20T18:17:22.326Z,95416.06
2023-03-20T18:20:22.656Z,95427.06
2023-03-20T18:23:09.161Z,95430.03
2023-03-20T18:25:55.190Z,95421.28
2023-03-20T18:28:40.905Z,95425.47
2023-03-20T18:31:26.994Z,95428.09
2023-03-20T18:34:12.590Z,95424.44
2023-03-20T18:36:58.612Z,95429.44
2023-03-20T18:39:44.810Z,95433.28
2023-03-20T18:42:31.144Z,95425.69
2023-03-20T18:45:17.305Z,95427.13
2023-03-20T18:48:03.970Z,95423.53
2023-03-20T18:50:51.116Z,95426.44
2023-03-20T18:53:37.148Z,95422.78
2023-03-20T18:56:25.484Z,95417.78
2023-03-20T18:59:13.033Z,95420.59
2023-03-20T19:01:58.818Z,95416.84
2023-03-20T19:04:44.733Z,95416.56
2023-03-20T19:07:30.580Z,95414.72
2023-03-20T19:10:36.689Z,95422.41
2023-03-20T19:13:22.832Z,95419.28
2023-03-20T19:16:19.336Z,95424.53
2023-03-20T19:19:07.746Z,95429.19
2023-03-20T19:21:56.118Z,95431.44
2023-03-20T19:24:42.705Z,95433.69
2023-03-20T19:27:28.526Z,95430.06
2023-03-20T19:30:25.513Z,95438.88
2023-03-20T19:33:11.386Z,95435.53
2023-03-20T19:36:04.843Z,95445.34
2023-03-20T19:38:51.395Z,95447.03
2023-03-20T19:41:37.987Z,95444.53
2023-03-20T19:44:24.083Z,95456.75
2023-03-20T19:47:10.404Z,95465.06
2023-03-20T19:49:56.230Z,95452.34
2023-03-20T19:52:41.856Z,95459.22
2023-03-20T19:55:28.893Z,95456.56
2023-03-20T19:58:15.005Z,95447.78
2023-03-20T20:01:00.890Z,95459.13
2023-03-20T20:03:47.058Z,95463.75
2023-03-20T20:06:33.335Z,95453.75
2023-03-20T20:09:19.451Z,95458.22
2023-03-20T20:12:05.757Z,95454.91
2023-03-20T20:14:52.127Z,95445.84
2023-03-20T20:17:37.867Z,95450.00
2023-03-20T20:20:25.236Z,95443.78
2023-03-20T20:23:15.724Z,95443.63
2023-03-20T20:26:04.954Z,95455.16
2023-03-20T20:28:51.046Z,95452.97
2023-03-20T20:31:36.966Z,95456.63
2023-03-20T20:35:22.446Z,95477.22
2023-03-20T20:40:35.748Z,95469.75
2023-03-20T20:43:43.928Z,95474.06
2023-03-20T20:46:28.212Z,95493.69
2023-03-20T20:49:19.403Z,95496.88
2023-03-20T20:52:06.466Z,95490.34
2023-03-20T20:54:52.395Z,95487.81
2023-03-20T20:57:38.232Z,95487.47
2023-03-20T21:00:37.207Z,95495.13
2023-03-20T21:03:29.062Z,95494.78
2023-03-20T21:06:14.934Z,95483.78
2023-03-20T21:09:01.036Z,95496.06
2023-03-20T21:11:47.104Z,95482.31
2023-03-20T21:14:32.952Z,95489.66
2023-03-20T21:17:20.458Z,95493.28
2023-03-20T21:20:13.213Z,95489.47
2023-03-20T21:23:00.773Z,95494.69
2023-03-20T21:25:47.980Z,95498.50
2023-03-20T21:28:36.158Z,95502.13
2023-03-20T21:31:28.071Z,95501.00
2023-03-20T21:34:16.541Z,95506.09
2023-03-20T21:37:56.146Z,95508.44
2023-03-20T21:40:09.945Z,95501.56
2023-03-20T21:42:57.886Z,95483.41
2023-03-20T21:46:37.451Z,95492.78
2023-03-20T21:55:52.321Z,95486.06
2023-03-20T21:58:51.756Z,95485.72
2023-03-20T22:14:34.028Z,95445.53
2023-03-20T22:27:01.537Z,95451.41
2023-03-20T22:30:00.636Z,95441.84
2023-03-20T22:33:22.407Z,95444.56
2023-03-20T22:39:11.693Z,95451.56
2023-03-20T22:45:00.590Z,95454.38
2023-03-20T22:47:47.656Z,95461.16
2023-03-20T22:50:33.338Z,95459.56
2023-03-20T22:53:19.250Z,95452.41
2023-03-20T22:56:06.913Z,95449.78
2023-03-20T22:58:53.848Z,95446.59
2023-03-20T23:01:40.248Z,95460.59
2023-03-20T23:04:27.448Z,95455.63
2023-03-20T23:07:14.491Z,95479.19
2023-03-20T23:10:00.910Z,95477.78
2023-03-20T23:12:46.922Z,95476.69
2023-03-20T23:15:32.689Z,95477.00
2023-03-20T23:18:18.410Z,95474.00
2023-03-20T23:21:05.035Z,95468.59
2023-03-20T23:23:50.818Z,95472.41
2023-03-20T23:26:36.640Z,95468.59
2023-03-20T23:29:22.317Z,95466.41
2023-03-20T23:32:08.086Z,95463.41
2023-03-20T23:34:53.681Z,95457.19
2023-03-20T23:37:39.425Z,95465.91
2023-03-20T23:40:25.602Z,95457.22
2023-03-20T23:43:11.378Z,95482.31
2023-03-20T23:45:58.584Z,95475.41
2023-03-20T23:48:45.727Z,95483.53
2023-03-20T23:51:31.408Z,95481.44
2023-03-20T23:54:17.176Z,95478.63
2023-03-20T23:57:02.870Z,95474.81
2023-03-20T23:59:48.702Z,95470.44
